sensor_id;sensor_type;location;lat;lon;timestamp;P1;durP1;ratioP1;P2;durP2;ratioP2
63005;SDS011;53704;52.532;6.426;2023-05-07T00:01:15;22.10;;;18.33;;
63005;SDS011;53704;52.532;6.426;2023-05-07T00:03:40;20.33;;;18.15;;
63005;SDS011;53704;52.532;6.426;2023-05-07T00:06:06;20.88;;;18.90;;
63005;SDS011;53704;52.532;6.426;2023-05-07T00:08:32;21.05;;;18.30;;
63005;SDS011;53704;52.532;6.426;2023-05-07T00:10:57;20.70;;;18.92;;
63005;SDS011;53704;52.532;6.426;2023-05-07T00:13:23;19.20;;;17.38;;
63005;SDS011;53704;52.532;6.426;2023-05-07T00:15:48;21.00;;;18.75;;
63005;SDS011;53704;52.532;6.426;2023-05-07T00:18:14;24.00;;;19.83;;
63005;SDS011;53704;52.532;6.426;2023-05-07T00:20:39;22.30;;;20.25;;
63005;SDS011;53704;52.532;6.426;2023-05-07T00:23:05;28.42;;;20.80;;
63005;SDS011;53704;52.532;6.426;2023-05-07T00:25:30;21.40;;;19.17;;
63005;SDS011;53704;52.532;6.426;2023-05-07T00:27:55;28.00;;;19.10;;
63005;SDS011;53704;52.532;6.426;2023-05-07T00:30:22;21.88;;;19.67;;
63005;SDS011;53704;52.532;6.426;2023-05-07T00:32:48;24.13;;;19.85;;
63005;SDS011;53704;52.532;6.426;2023-05-07T00:35:14;23.38;;;20.08;;
63005;SDS011;53704;52.532;6.426;2023-05-07T00:37:39;29.15;;;21.45;;
63005;SDS011;53704;52.532;6.426;2023-05-07T00:40:05;21.17;;;19.23;;
63005;SDS011;53704;52.532;6.426;2023-05-07T00:42:32;24.02;;;20.55;;
63005;SDS011;53704;52.532;6.426;2023-05-07T00:44:58;23.05;;;20.73;;
63005;SDS011;53704;52.532;6.426;2023-05-07T00:47:24;21.42;;;19.40;;
63005;SDS011;53704;52.532;6.426;2023-05-07T00:49:50;25.95;;;20.88;;
63005;SDS011;53704;52.532;6.426;2023-05-07T00:52:17;24.67;;;21.05;;
63005;SDS011;53704;52.532;6.426;2023-05-07T00:54:44;23.45;;;20.67;;
63005;SDS011;53704;52.532;6.426;2023-05-07T00:57:10;25.00;;;22.33;;
63005;SDS011;53704;52.532;6.426;2023-05-07T00:59:38;22.08;;;19.88;;
63005;SDS011;53704;52.532;6.426;2023-05-07T01:02:05;24.30;;;22.02;;
63005;SDS011;53704;52.532;6.426;2023-05-07T01:04:31;23.33;;;20.85;;
63005;SDS011;53704;52.532;6.426;2023-05-07T01:06:56;38.30;;;20.58;;
63005;SDS011;53704;52.532;6.426;2023-05-07T01:09:24;21.88;;;19.55;;
63005;SDS011;53704;52.532;6.426;2023-05-07T01:11:50;23.48;;;21.10;;
63005;SDS011;53704;52.532;6.426;2023-05-07T01:14:16;24.48;;;21.92;;
63005;SDS011;53704;52.532;6.426;2023-05-07T01:16:43;27.48;;;21.15;;
63005;SDS011;53704;52.532;6.426;2023-05-07T01:19:09;23.60;;;20.73;;
63005;SDS011;53704;52.532;6.426;2023-05-07T01:21:38;23.30;;;21.17;;
63005;SDS011;53704;52.532;6.426;2023-05-07T01:24:04;22.95;;;20.55;;
63005;SDS011;53704;52.532;6.426;2023-05-07T01:26:30;24.38;;;21.38;;
63005;SDS011;53704;52.532;6.426;2023-05-07T01:28:56;22.27;;;20.08;;
63005;SDS011;53704;52.532;6.426;2023-05-07T01:31:21;22.67;;;20.30;;
63005;SDS011;53704;52.532;6.426;2023-05-07T01:33:48;22.40;;;20.20;;
63005;SDS011;53704;52.532;6.426;2023-05-07T01:36:17;22.98;;;20.52;;
63005;SDS011;53704;52.532;6.426;2023-05-07T01:38:46;23.55;;;20.52;;
63005;SDS011;53704;52.532;6.426;2023-05-07T01:41:11;22.40;;;19.48;;
63005;SDS011;53704;52.532;6.426;2023-05-07T01:43:37;22.65;;;19.38;;
63005;SDS011;53704;52.532;6.426;2023-05-07T01:46:03;21.02;;;18.85;;
63005;SDS011;53704;52.532;6.426;2023-05-07T01:48:28;20.92;;;18.80;;
63005;SDS011;53704;52.532;6.426;2023-05-07T01:50:54;20.73;;;18.52;;
63005;SDS011;53704;52.532;6.426;2023-05-07T01:53:20;22.98;;;18.95;;
63005;SDS011;53704;52.532;6.426;2023-05-07T01:55:45;25.50;;;19.50;;
63005;SDS011;53704;52.532;6.426;2023-05-07T01:58:11;23.70;;;18.60;;
63005;SDS011;53704;52.532;6.426;2023-05-07T02:00:36;21.45;;;17.38;;
63005;SDS011;53704;52.532;6.426;2023-05-07T02:03:02;26.10;;;19.10;;
63005;SDS011;53704;52.532;6.426;2023-05-07T02:05:27;20.73;;;18.52;;
63005;SDS011;53704;52.532;6.426;2023-05-07T02:07:52;22.02;;;18.38;;
63005;SDS011;53704;52.532;6.426;2023-05-07T02:10:18;21.65;;;18.92;;
63005;SDS011;53704;52.532;6.426;2023-05-07T02:12:43;25.45;;;17.75;;
63005;SDS011;53704;52.532;6.426;2023-05-07T02:15:09;26.02;;;19.52;;
63005;SDS011;53704;52.532;6.426;2023-05-07T02:17:39;20.40;;;17.95;;
63005;SDS011;53704;52.532;6.426;2023-05-07T02:20:22;22.40;;;18.67;;
63005;SDS011;53704;52.532;6.426;2023-05-07T02:22:48;21.92;;;17.98;;
63005;SDS011;53704;52.532;6.426;2023-05-07T02:25:13;29.35;;;19.05;;
63005;SDS011;53704;52.532;6.426;2023-05-07T02:27:39;26.90;;;18.00;;
63005;SDS011;53704;52.532;6.426;2023-05-07T02:30:04;26.02;;;18.13;;
63005;SDS011;53704;52.532;6.426;2023-05-07T02:32:30;30.33;;;18.63;;
63005;SDS011;53704;52.532;6.426;2023-05-07T02:34:56;22.95;;;19.08;;
63005;SDS011;53704;52.532;6.426;2023-05-07T02:37:21;29.65;;;20.10;;
63005;SDS011;53704;52.532;6.426;2023-05-07T02:39:47;29.58;;;20.92;;
63005;SDS011;53704;52.532;6.426;2023-05-07T02:42:12;24.75;;;20.45;;
63005;SDS011;53704;52.532;6.426;2023-05-07T02:44:37;26.80;;;21.27;;
63005;SDS011;53704;52.532;6.426;2023-05-07T02:47:03;29.33;;;20.80;;
63005;SDS011;53704;52.532;6.426;2023-05-07T02:49:29;25.20;;;20.75;;
63005;SDS011;53704;52.532;6.426;2023-05-07T02:51:54;28.90;;;22.17;;
63005;SDS011;53704;52.532;6.426;2023-05-07T02:54:20;36.05;;;22.23;;
63005;SDS011;53704;52.532;6.426;2023-05-07T02:56:46;29.60;;;23.02;;
63005;SDS011;53704;52.532;6.426;2023-05-07T02:59:11;30.17;;;22.88;;
63005;SDS011;53704;52.532;6.426;2023-05-07T03:01:37;34.67;;;23.92;;
63005;SDS011;53704;52.532;6.426;2023-05-07T03:04:02;33.67;;;23.00;;
63005;SDS011;53704;52.532;6.426;2023-05-07T03:06:28;30.38;;;22.20;;
63005;SDS011;53704;52.532;6.426;2023-05-07T03:08:53;29.85;;;23.20;;
63005;SDS011;53704;52.532;6.426;2023-05-07T03:11:19;35.97;;;24.00;;
63005;SDS011;53704;52.532;6.426;2023-05-07T03:13:44;34.80;;;24.27;;
63005;SDS011;53704;52.532;6.426;2023-05-07T03:16:10;33.25;;;23.75;;
63005;SDS011;53704;52.532;6.426;2023-05-07T03:18:35;33.25;;;23.52;;
63005;SDS011;53704;52.532;6.426;2023-05-07T03:21:01;35.75;;;24.30;;
63005;SDS011;53704;52.532;6.426;2023-05-07T03:23:26;28.98;;;23.00;;
63005;SDS011;53704;52.532;6.426;2023-05-07T03:25:51;35.55;;;25.58;;
63005;SDS011;53704;52.532;6.426;2023-05-07T03:28:17;35.55;;;23.95;;
63005;SDS011;53704;52.532;6.426;2023-05-07T03:30:42;26.23;;;22.75;;
63005;SDS011;53704;52.532;6.426;2023-05-07T03:33:08;32.95;;;23.98;;
63005;SDS011;53704;52.532;6.426;2023-05-07T03:35:33;29.10;;;23.67;;
63005;SDS011;53704;52.532;6.426;2023-05-07T03:37:58;34.25;;;24.85;;
63005;SDS011;53704;52.532;6.426;2023-05-07T03:40:24;32.88;;;24.55;;
63005;SDS011;53704;52.532;6.426;2023-05-07T03:42:49;31.95;;;24.75;;
63005;SDS011;53704;52.532;6.426;2023-05-07T03:45:15;31.23;;;24.75;;
63005;SDS011;53704;52.532;6.426;2023-05-07T03:47:40;36.50;;;24.55;;
63005;SDS011;53704;52.532;6.426;2023-05-07T03:50:06;35.03;;;25.02;;
63005;SDS011;53704;52.532;6.426;2023-05-07T03:52:31;31.73;;;24.95;;
63005;SDS011;53704;52.532;6.426;2023-05-07T03:54:57;33.72;;;24.88;;
63005;SDS011;53704;52.532;6.426;2023-05-07T03:57:22;33.33;;;26.17;;
63005;SDS011;53704;52.532;6.426;2023-05-07T03:59:48;39.03;;;26.38;;
63005;SDS011;53704;52.532;6.426;2023-05-07T04:02:13;31.95;;;25.38;;
63005;SDS011;53704;52.532;6.426;2023-05-07T04:04:39;28.25;;;23.63;;
63005;SDS011;53704;52.532;6.426;2023-05-07T04:07:04;32.65;;;24.65;;
63005;SDS011;53704;52.532;6.426;2023-05-07T04:09:30;41.55;;;26.13;;
63005;SDS011;53704;52.532;6.426;2023-05-07T04:11:55;40.40;;;27.98;;
63005;SDS011;53704;52.532;6.426;2023-05-07T04:14:20;37.13;;;28.15;;
63005;SDS011;53704;52.532;6.426;2023-05-07T04:16:46;40.00;;;28.98;;
63005;SDS011;53704;52.532;6.426;2023-05-07T04:19:11;38.85;;;25.85;;
63005;SDS011;53704;52.532;6.426;2023-05-07T04:21:37;40.97;;;26.90;;
63005;SDS011;53704;52.532;6.426;2023-05-07T04:24:03;38.88;;;27.10;;
63005;SDS011;53704;52.532;6.426;2023-05-07T04:26:29;33.53;;;26.23;;
63005;SDS011;53704;52.532;6.426;2023-05-07T04:28:54;39.13;;;28.02;;
63005;SDS011;53704;52.532;6.426;2023-05-07T04:31:20;41.55;;;29.23;;
63005;SDS011;53704;52.532;6.426;2023-05-07T04:33:46;35.75;;;26.90;;
63005;SDS011;53704;52.532;6.426;2023-05-07T04:36:11;41.63;;;27.73;;
63005;SDS011;53704;52.532;6.426;2023-05-07T04:38:36;34.70;;;26.38;;
63005;SDS011;53704;52.532;6.426;2023-05-07T04:41:03;38.17;;;27.33;;
63005;SDS011;53704;52.532;6.426;2023-05-07T04:43:30;38.40;;;28.70;;
63005;SDS011;53704;52.532;6.426;2023-05-07T04:45:55;39.10;;;28.45;;
63005;SDS011;53704;52.532;6.426;2023-05-07T04:48:21;37.25;;;27.77;;
63005;SDS011;53704;52.532;6.426;2023-05-07T04:50:49;40.67;;;28.67;;
63005;SDS011;53704;52.532;6.426;2023-05-07T04:53:16;38.92;;;27.92;;
63005;SDS011;53704;52.532;6.426;2023-05-07T04:55:42;46.35;;;30.50;;
63005;SDS011;53704;52.532;6.426;2023-05-07T04:58:08;41.47;;;29.27;;
63005;SDS011;53704;52.532;6.426;2023-05-07T05:00:33;41.75;;;29.38;;
63005;SDS011;53704;52.532;6.426;2023-05-07T05:02:59;48.10;;;29.95;;
63005;SDS011;53704;52.532;6.426;2023-05-07T05:05:24;41.25;;;29.27;;
63005;SDS011;53704;52.532;6.426;2023-05-07T05:07:50;40.22;;;30.15;;
63005;SDS011;53704;52.532;6.426;2023-05-07T05:10:16;47.25;;;31.40;;
63005;SDS011;53704;52.532;6.426;2023-05-07T05:12:42;42.90;;;29.58;;
63005;SDS011;53704;52.532;6.426;2023-05-07T05:15:08;45.38;;;30.75;;
63005;SDS011;53704;52.532;6.426;2023-05-07T05:17:34;47.83;;;32.60;;
63005;SDS011;53704;52.532;6.426;2023-05-07T05:20:01;42.50;;;30.55;;
63005;SDS011;53704;52.532;6.426;2023-05-07T05:22:27;42.58;;;31.17;;
63005;SDS011;53704;52.532;6.426;2023-05-07T05:24:54;43.75;;;31.63;;
63005;SDS011;53704;52.532;6.426;2023-05-07T05:27:20;48.70;;;32.10;;
63005;SDS011;53704;52.532;6.426;2023-05-07T05:29:45;43.55;;;30.90;;
63005;SDS011;53704;52.532;6.426;2023-05-07T05:32:11;46.92;;;33.22;;
63005;SDS011;53704;52.532;6.426;2023-05-07T05:34:36;50.25;;;31.55;;
63005;SDS011;53704;52.532;6.426;2023-05-07T05:37:01;52.78;;;31.05;;
63005;SDS011;53704;52.532;6.426;2023-05-07T05:39:27;51.53;;;33.30;;
63005;SDS011;53704;52.532;6.426;2023-05-07T05:41:52;45.20;;;31.85;;
63005;SDS011;53704;52.532;6.426;2023-05-07T05:44:18;59.88;;;35.08;;
63005;SDS011;53704;52.532;6.426;2023-05-07T05:46:43;48.65;;;32.92;;
63005;SDS011;53704;52.532;6.426;2023-05-07T05:49:09;54.55;;;34.03;;
63005;SDS011;53704;52.532;6.426;2023-05-07T05:51:35;45.20;;;32.28;;
63005;SDS011;53704;52.532;6.426;2023-05-07T05:54:00;54.97;;;36.42;;
63005;SDS011;53704;52.532;6.426;2023-05-07T05:56:25;45.53;;;31.77;;
63005;SDS011;53704;52.532;6.426;2023-05-07T05:58:51;50.50;;;34.00;;
63005;SDS011;53704;52.532;6.426;2023-05-07T06:01:17;51.88;;;34.50;;
63005;SDS011;53704;52.532;6.426;2023-05-07T06:03:43;46.55;;;32.35;;
63005;SDS011;53704;52.532;6.426;2023-05-07T06:06:08;50.97;;;33.88;;
63005;SDS011;53704;52.532;6.426;2023-05-07T06:08:33;54.17;;;35.28;;
63005;SDS011;53704;52.532;6.426;2023-05-07T06:10:59;54.40;;;35.55;;
63005;SDS011;53704;52.532;6.426;2023-05-07T06:13:26;52.63;;;34.38;;
63005;SDS011;53704;52.532;6.426;2023-05-07T06:15:52;52.15;;;34.85;;
63005;SDS011;53704;52.532;6.426;2023-05-07T06:18:17;51.15;;;34.55;;
63005;SDS011;53704;52.532;6.426;2023-05-07T06:20:43;52.03;;;36.30;;
63005;SDS011;53704;52.532;6.426;2023-05-07T06:23:08;48.85;;;35.35;;
63005;SDS011;53704;52.532;6.426;2023-05-07T06:25:34;52.78;;;35.00;;
63005;SDS011;53704;52.532;6.426;2023-05-07T06:27:59;45.95;;;33.90;;
63005;SDS011;53704;52.532;6.426;2023-05-07T06:30:24;50.15;;;33.38;;
63005;SDS011;53704;52.532;6.426;2023-05-07T06:32:51;55.28;;;35.38;;
63005;SDS011;53704;52.532;6.426;2023-05-07T06:35:17;47.80;;;34.35;;
63005;SDS011;53704;52.532;6.426;2023-05-07T06:37:42;54.65;;;33.00;;
63005;SDS011;53704;52.532;6.426;2023-05-07T06:40:08;43.83;;;34.53;;
63005;SDS011;53704;52.532;6.426;2023-05-07T06:42:35;49.72;;;34.20;;
63005;SDS011;53704;52.532;6.426;2023-05-07T06:45:01;46.75;;;32.58;;
63005;SDS011;53704;52.532;6.426;2023-05-07T06:47:27;43.65;;;32.30;;
63005;SDS011;53704;52.532;6.426;2023-05-07T06:49:53;50.85;;;35.13;;
63005;SDS011;53704;52.532;6.426;2023-05-07T06:52:19;50.10;;;34.75;;
63005;SDS011;53704;52.532;6.426;2023-05-07T06:54:44;49.45;;;33.90;;
63005;SDS011;53704;52.532;6.426;2023-05-07T06:57:09;45.85;;;33.00;;
63005;SDS011;53704;52.532;6.426;2023-05-07T06:59:35;51.50;;;34.28;;
63005;SDS011;53704;52.532;6.426;2023-05-07T07:02:00;47.83;;;32.78;;
63005;SDS011;53704;52.532;6.426;2023-05-07T07:04:26;47.90;;;33.72;;
63005;SDS011;53704;52.532;6.426;2023-05-07T07:06:52;50.78;;;34.03;;
63005;SDS011;53704;52.532;6.426;2023-05-07T07:09:18;55.47;;;34.90;;
63005;SDS011;53704;52.532;6.426;2023-05-07T07:11:44;51.20;;;35.05;;
63005;SDS011;53704;52.532;6.426;2023-05-07T07:14:09;49.17;;;33.58;;
63005;SDS011;53704;52.532;6.426;2023-05-07T07:16:35;42.20;;;32.58;;
63005;SDS011;53704;52.532;6.426;2023-05-07T07:19:00;40.33;;;31.75;;
63005;SDS011;53704;52.532;6.426;2023-05-07T07:21:25;43.70;;;32.55;;
63005;SDS011;53704;52.532;6.426;2023-05-07T07:23:51;42.70;;;31.08;;
63005;SDS011;53704;52.532;6.426;2023-05-07T07:26:17;42.13;;;31.80;;
63005;SDS011;53704;52.532;6.426;2023-05-07T07:28:43;43.08;;;30.75;;
63005;SDS011;53704;52.532;6.426;2023-05-07T07:31:11;46.60;;;33.22;;
63005;SDS011;53704;52.532;6.426;2023-05-07T07:33:37;39.47;;;31.00;;
63005;SDS011;53704;52.532;6.426;2023-05-07T07:36:05;45.90;;;32.22;;
63005;SDS011;53704;52.532;6.426;2023-05-07T07:38:31;38.05;;;29.63;;
63005;SDS011;53704;52.532;6.426;2023-05-07T07:40:56;41.13;;;31.95;;
63005;SDS011;53704;52.532;6.426;2023-05-07T07:43:21;44.97;;;30.73;;
63005;SDS011;53704;52.532;6.426;2023-05-07T07:45:47;42.83;;;31.45;;
63005;SDS011;53704;52.532;6.426;2023-05-07T07:48:12;47.30;;;31.02;;
63005;SDS011;53704;52.532;6.426;2023-05-07T07:50:38;39.00;;;31.05;;
63005;SDS011;53704;52.532;6.426;2023-05-07T07:53:03;45.08;;;30.35;;
63005;SDS011;53704;52.532;6.426;2023-05-07T07:55:29;43.22;;;29.40;;
63005;SDS011;53704;52.532;6.426;2023-05-07T07:57:56;38.55;;;31.30;;
63005;SDS011;53704;52.532;6.426;2023-05-07T08:00:21;40.80;;;30.38;;
63005;SDS011;53704;52.532;6.426;2023-05-07T08:02:47;39.17;;;31.52;;
63005;SDS011;53704;52.532;6.426;2023-05-07T08:05:12;38.47;;;30.17;;
63005;SDS011;53704;52.532;6.426;2023-05-07T08:07:37;44.72;;;30.77;;
63005;SDS011;53704;52.532;6.426;2023-05-07T08:10:03;44.58;;;30.50;;
63005;SDS011;53704;52.532;6.426;2023-05-07T08:12:29;39.95;;;29.27;;
63005;SDS011;53704;52.532;6.426;2023-05-07T08:14:54;43.33;;;30.92;;
63005;SDS011;53704;52.532;6.426;2023-05-07T08:17:20;40.80;;;28.75;;
63005;SDS011;53704;52.532;6.426;2023-05-07T08:19:47;33.70;;;29.15;;
63005;SDS011;53704;52.532;6.426;2023-05-07T08:22:13;39.78;;;30.35;;
63005;SDS011;53704;52.532;6.426;2023-05-07T08:24:39;45.38;;;30.25;;
63005;SDS011;53704;52.532;6.426;2023-05-07T08:27:05;39.67;;;28.95;;
63005;SDS011;53704;52.532;6.426;2023-05-07T08:29:30;36.03;;;29.20;;
63005;SDS011;53704;52.532;6.426;2023-05-07T08:31:55;37.55;;;29.80;;
63005;SDS011;53704;52.532;6.426;2023-05-07T08:34:21;35.22;;;29.10;;
63005;SDS011;53704;52.532;6.426;2023-05-07T08:36:47;41.08;;;29.90;;
63005;SDS011;53704;52.532;6.426;2023-05-07T08:39:13;46.40;;;29.90;;
63005;SDS011;53704;52.532;6.426;2023-05-07T08:41:44;37.38;;;29.10;;
63005;SDS011;53704;52.532;6.426;2023-05-07T08:44:16;40.42;;;30.02;;
63005;SDS011;53704;52.532;6.426;2023-05-07T08:46:45;41.97;;;29.30;;
63005;SDS011;53704;52.532;6.426;2023-05-07T08:49:13;36.03;;;29.10;;
63005;SDS011;53704;52.532;6.426;2023-05-07T08:51:38;42.35;;;28.92;;
63005;SDS011;53704;52.532;6.426;2023-05-07T08:54:04;37.17;;;29.17;;
63005;SDS011;53704;52.532;6.426;2023-05-07T08:56:30;37.28;;;28.15;;
63005;SDS011;53704;52.532;6.426;2023-05-07T08:58:55;36.40;;;26.75;;
63005;SDS011;53704;52.532;6.426;2023-05-07T09:01:23;33.60;;;27.00;;
63005;SDS011;53704;52.532;6.426;2023-05-07T09:03:50;35.72;;;27.83;;
63005;SDS011;53704;52.532;6.426;2023-05-07T09:06:16;38.78;;;28.00;;
63005;SDS011;53704;52.532;6.426;2023-05-07T09:08:48;37.40;;;26.40;;
63005;SDS011;53704;52.532;6.426;2023-05-07T09:11:23;36.83;;;27.85;;
63005;SDS011;53704;52.532;6.426;2023-05-07T09:13:53;35.42;;;26.48;;
63005;SDS011;53704;52.532;6.426;2023-05-07T09:16:21;35.55;;;27.55;;
63005;SDS011;53704;52.532;6.426;2023-05-07T09:18:48;37.03;;;28.95;;
63005;SDS011;53704;52.532;6.426;2023-05-07T09:21:17;40.13;;;28.92;;
63005;SDS011;53704;52.532;6.426;2023-05-07T09:23:43;40.03;;;27.63;;
63005;SDS011;53704;52.532;6.426;2023-05-07T09:26:08;34.75;;;27.55;;
63005;SDS011;53704;52.532;6.426;2023-05-07T09:28:40;31.08;;;26.20;;
63005;SDS011;53704;52.532;6.426;2023-05-07T09:31:07;38.95;;;27.63;;
63005;SDS011;53704;52.532;6.426;2023-05-07T09:33:33;35.72;;;26.77;;
63005;SDS011;53704;52.532;6.426;2023-05-07T09:36:01;35.65;;;26.45;;
63005;SDS011;53704;52.532;6.426;2023-05-07T09:38:28;34.53;;;27.50;;
63005;SDS011;53704;52.532;6.426;2023-05-07T09:45:57;33.53;;;25.65;;
63005;SDS011;53704;52.532;6.426;2023-05-07T09:48:24;32.33;;;26.23;;
63005;SDS011;53704;52.532;6.426;2023-05-07T09:50:51;30.70;;;25.92;;
63005;SDS011;53704;52.532;6.426;2023-05-07T09:53:23;33.65;;;26.35;;
63005;SDS011;53704;52.532;6.426;2023-05-07T09:55:49;36.03;;;26.95;;
63005;SDS011;53704;52.532;6.426;2023-05-07T09:58:16;31.65;;;25.02;;
63005;SDS011;53704;52.532;6.426;2023-05-07T10:00:43;34.10;;;24.17;;
63005;SDS011;53704;52.532;6.426;2023-05-07T10:03:10;30.70;;;24.45;;
63005;SDS011;53704;52.532;6.426;2023-05-07T10:05:37;30.45;;;24.15;;
63005;SDS011;53704;52.532;6.426;2023-05-07T10:08:03;31.13;;;24.02;;
63005;SDS011;53704;52.532;6.426;2023-05-07T10:10:32;31.42;;;24.75;;
63005;SDS011;53704;52.532;6.426;2023-05-07T10:12:58;25.88;;;21.23;;
63005;SDS011;53704;52.532;6.426;2023-05-07T10:15:24;32.20;;;24.25;;
63005;SDS011;53704;52.532;6.426;2023-05-07T10:17:50;33.85;;;24.70;;
63005;SDS011;53704;52.532;6.426;2023-05-07T10:20:18;34.95;;;25.92;;
63005;SDS011;53704;52.532;6.426;2023-05-07T10:22:44;31.17;;;24.45;;
63005;SDS011;53704;52.532;6.426;2023-05-07T10:25:22;29.10;;;22.67;;
63005;SDS011;53704;52.532;6.426;2023-05-07T10:28:08;26.55;;;20.88;;
63005;SDS011;53704;52.532;6.426;2023-05-07T10:35:40;28.25;;;20.85;;
63005;SDS011;53704;52.532;6.426;2023-05-07T10:38:08;24.77;;;21.45;;
63005;SDS011;53704;52.532;6.426;2023-05-07T10:40:35;30.02;;;22.50;;
63005;SDS011;53704;52.532;6.426;2023-05-07T10:43:04;26.20;;;22.55;;
63005;SDS011;53704;52.532;6.426;2023-05-07T10:45:30;29.08;;;22.42;;
63005;SDS011;53704;52.532;6.426;2023-05-07T10:50:44;26.02;;;20.48;;
63005;SDS011;53704;52.532;6.426;2023-05-07T10:55:41;24.10;;;20.45;;
63005;SDS011;53704;52.532;6.426;2023-05-07T10:58:26;25.77;;;20.13;;
63005;SDS011;53704;52.532;6.426;2023-05-07T11:00:55;24.13;;;20.83;;
63005;SDS011;53704;52.532;6.426;2023-05-07T11:03:23;31.77;;;21.58;;
63005;SDS011;53704;52.532;6.426;2023-05-07T11:05:55;26.40;;;20.27;;
63005;SDS011;53704;52.532;6.426;2023-05-07T11:11:19;30.23;;;19.85;;
63005;SDS011;53704;52.532;6.426;2023-05-07T11:14:05;22.60;;;20.02;;
63005;SDS011;53704;52.532;6.426;2023-05-07T11:16:30;24.88;;;20.85;;
63005;SDS011;53704;52.532;6.426;2023-05-07T11:18:58;27.52;;;19.60;;
63005;SDS011;53704;52.532;6.426;2023-05-07T11:21:34;29.75;;;20.92;;
63005;SDS011;53704;52.532;6.426;2023-05-07T11:24:06;27.05;;;22.50;;
63005;SDS011;53704;52.532;6.426;2023-05-07T11:29:13;27.30;;;23.10;;
63005;SDS011;53704;52.532;6.426;2023-05-07T11:31:42;25.20;;;21.35;;
63005;SDS011;53704;52.532;6.426;2023-05-07T11:34:08;26.52;;;21.58;;
63005;SDS011;53704;52.532;6.426;2023-05-07T11:36:34;24.73;;;21.33;;
63005;SDS011;53704;52.532;6.426;2023-05-07T11:39:22;27.02;;;21.63;;
63005;SDS011;53704;52.532;6.426;2023-05-07T11:41:48;23.00;;;20.65;;
63005;SDS011;53704;52.532;6.426;2023-05-07T11:44:14;29.65;;;21.83;;
63005;SDS011;53704;52.532;6.426;2023-05-07T11:46:42;25.23;;;21.10;;
63005;SDS011;53704;52.532;6.426;2023-05-07T11:49:09;23.65;;;21.17;;
63005;SDS011;53704;52.532;6.426;2023-05-07T11:51:34;24.08;;;20.60;;
63005;SDS011;53704;52.532;6.426;2023-05-07T11:54:00;24.55;;;21.70;;
63005;SDS011;53704;52.532;6.426;2023-05-07T11:56:29;29.45;;;21.70;;
63005;SDS011;53704;52.532;6.426;2023-05-07T11:58:58;25.58;;;21.95;;
63005;SDS011;53704;52.532;6.426;2023-05-07T12:01:24;25.05;;;22.30;;
63005;SDS011;53704;52.532;6.426;2023-05-07T12:03:50;22.73;;;20.42;;
63005;SDS011;53704;52.532;6.426;2023-05-07T12:06:15;25.48;;;21.45;;
63005;SDS011;53704;52.532;6.426;2023-05-07T12:08:42;26.67;;;23.67;;
63005;SDS011;53704;52.532;6.426;2023-05-07T12:11:24;24.73;;;22.13;;
63005;SDS011;53704;52.532;6.426;2023-05-07T12:13:51;23.58;;;21.13;;
63005;SDS011;53704;52.532;6.426;2023-05-07T12:16:17;30.30;;;21.88;;
63005;SDS011;53704;52.532;6.426;2023-05-07T12:18:43;24.92;;;20.60;;
63005;SDS011;53704;52.532;6.426;2023-05-07T12:21:09;23.40;;;20.85;;
63005;SDS011;53704;52.532;6.426;2023-05-07T12:23:36;23.90;;;21.17;;
63005;SDS011;53704;52.532;6.426;2023-05-07T12:26:02;23.25;;;19.33;;
63005;SDS011;53704;52.532;6.426;2023-05-07T12:28:28;22.23;;;18.55;;
63005;SDS011;53704;52.532;6.426;2023-05-07T12:30:55;20.42;;;18.35;;
63005;SDS011;53704;52.532;6.426;2023-05-07T12:33:25;21.70;;;17.02;;
63005;SDS011;53704;52.532;6.426;2023-05-07T12:35:52;23.48;;;18.55;;
63005;SDS011;53704;52.532;6.426;2023-05-07T12:38:19;21.98;;;18.45;;
63005;SDS011;53704;52.532;6.426;2023-05-07T12:40:45;19.77;;;17.67;;
63005;SDS011;53704;52.532;6.426;2023-05-07T12:43:24;22.83;;;19.10;;
63005;SDS011;53704;52.532;6.426;2023-05-07T12:45:52;26.88;;;19.98;;
63005;SDS011;53704;52.532;6.426;2023-05-07T12:48:20;21.80;;;18.90;;
63005;SDS011;53704;52.532;6.426;2023-05-07T12:50:50;21.77;;;19.52;;
63005;SDS011;53704;52.532;6.426;2023-05-07T12:53:16;26.13;;;18.48;;
63005;SDS011;53704;52.532;6.426;2023-05-07T12:58:07;24.08;;;19.95;;
63005;SDS011;53704;52.532;6.426;2023-05-07T13:00:36;25.73;;;21.92;;
63005;SDS011;53704;52.532;6.426;2023-05-07T13:03:02;23.30;;;20.23;;
63005;SDS011;53704;52.532;6.426;2023-05-07T13:05:28;23.88;;;19.77;;
63005;SDS011;53704;52.532;6.426;2023-05-07T13:07:54;26.95;;;20.48;;
63005;SDS011;53704;52.532;6.426;2023-05-07T13:10:21;21.45;;;19.23;;
63005;SDS011;53704;52.532;6.426;2023-05-07T13:12:49;22.63;;;19.40;;
63005;SDS011;53704;52.532;6.426;2023-05-07T13:15:16;20.30;;;18.15;;
63005;SDS011;53704;52.532;6.426;2023-05-07T13:17:42;21.42;;;19.13;;
63005;SDS011;53704;52.532;6.426;2023-05-07T13:20:11;18.58;;;16.75;;
63005;SDS011;53704;52.532;6.426;2023-05-07T13:22:40;19.85;;;17.63;;
63005;SDS011;53704;52.532;6.426;2023-05-07T13:25:06;19.48;;;17.67;;
63005;SDS011;53704;52.532;6.426;2023-05-07T13:27:32;19.05;;;17.15;;
63005;SDS011;53704;52.532;6.426;2023-05-07T13:30:00;24.08;;;18.25;;
63005;SDS011;53704;52.532;6.426;2023-05-07T13:32:26;19.20;;;17.38;;
63005;SDS011;53704;52.532;6.426;2023-05-07T13:34:52;23.02;;;16.50;;
63005;SDS011;53704;52.532;6.426;2023-05-07T13:37:18;25.70;;;18.20;;
63005;SDS011;53704;52.532;6.426;2023-05-07T13:39:43;21.33;;;18.05;;
63005;SDS011;53704;52.532;6.426;2023-05-07T13:42:09;20.00;;;18.08;;
63005;SDS011;53704;52.532;6.426;2023-05-07T13:44:34;21.13;;;16.30;;
63005;SDS011;53704;52.532;6.426;2023-05-07T13:47:00;18.55;;;16.63;;
63005;SDS011;53704;52.532;6.426;2023-05-07T13:49:25;18.50;;;16.65;;
63005;SDS011;53704;52.532;6.426;2023-05-07T13:51:51;18.85;;;16.85;;
63005;SDS011;53704;52.532;6.426;2023-05-07T13:54:16;18.15;;;16.40;;
63005;SDS011;53704;52.532;6.426;2023-05-07T13:56:41;20.85;;;17.67;;
63005;SDS011;53704;52.532;6.426;2023-05-07T13:59:07;17.80;;;16.10;;
63005;SDS011;53704;52.532;6.426;2023-05-07T14:01:33;15.88;;;14.48;;
63005;SDS011;53704;52.532;6.426;2023-05-07T14:03:58;15.63;;;13.95;;
63005;SDS011;53704;52.532;6.426;2023-05-07T14:06:27;15.48;;;13.98;;
63005;SDS011;53704;52.532;6.426;2023-05-07T14:09:13;14.90;;;13.48;;
63005;SDS011;53704;52.532;6.426;2023-05-07T14:11:38;14.60;;;12.88;;
63005;SDS011;53704;52.532;6.426;2023-05-07T14:14:05;17.63;;;15.32;;
63005;SDS011;53704;52.532;6.426;2023-05-07T14:16:30;22.00;;;14.70;;
63005;SDS011;53704;52.532;6.426;2023-05-07T14:18:56;17.08;;;15.40;;
63005;SDS011;53704;52.532;6.426;2023-05-07T14:21:21;17.67;;;15.63;;
63005;SDS011;53704;52.532;6.426;2023-05-07T14:23:46;18.67;;;16.65;;
63005;SDS011;53704;52.532;6.426;2023-05-07T14:26:13;18.30;;;15.38;;
63005;SDS011;53704;52.532;6.426;2023-05-07T14:28:38;14.27;;;13.02;;
63005;SDS011;53704;52.532;6.426;2023-05-07T14:31:04;17.40;;;12.52;;
63005;SDS011;53704;52.532;6.426;2023-05-07T14:33:31;14.05;;;12.75;;
63005;SDS011;53704;52.532;6.426;2023-05-07T14:35:56;14.45;;;13.07;;
63005;SDS011;53704;52.532;6.426;2023-05-07T14:38:22;13.57;;;12.32;;
63005;SDS011;53704;52.532;6.426;2023-05-07T14:40:47;15.23;;;13.05;;